Humidity-temperature Sensor

Selected Measurement Type: Relative Humidity

 
Relative Humidity [%]     6 entries per hour
Showing data from 10/3/2022 (00:00:00 Z) to 9/26/2022 (00:01:00 Z)
Previous Next [ Day | 3-Days | 7-Days ]
First Last
Prev [ Day | 3-Days | 7-Days ] Next
First Last

Start Time:     :
End Time:     :     
Time (in GMT) :00 :50 :40 :30 :20 :10
Previous Next [ Day | 3-Days | 7-Days ]
First Last
Prev [ Day | 3-Days | 7-Days ] Next
First Last


123 => good data
MM => data is determined as missing
-- => data not received/configured
Back to Top Back to Top
10/3/2022 00:00 to 23:10 79.89 79.64 79.81 79.06 80.55 81.28
10/2/2022 23:00 to 22:10 81.66 82.45 83.06 82.82 81.14 80.25
10/2/2022 22:00 to 21:10 80.67 79.85 81.83 82.31 81.70 81.64
10/2/2022 21:00 to 20:10 83.60 82.75 82.88 83.93 83.44 83.50
10/2/2022 20:00 to 19:10 83.08 81.95 81.97 80.75 79.56 81.42
10/2/2022 19:00 to 18:10 81.18 83.54 87.18 88.61 88.79 87.60
10/2/2022 18:00 to 17:10 86.87 86.73 85.28 84.31 84.53 84.29
10/2/2022 17:00 to 16:10 84.19 84.51 83.44 83.85 85.02 87.40
10/2/2022 16:00 to 15:10 87.74 88.43 83.80 82.55 83.00 85.91
10/2/2022 15:00 to 14:10 80.69 87.20 87.48 86.98 87.64 87.80
10/2/2022 14:00 to 13:10 88.39 87.54 88.79 87.82 87.48 87.30
10/2/2022 13:00 to 12:10 86.67 87.12 88.01 89.44 90.67 90.93
10/2/2022 12:00 to 11:10 90.87 89.72 89.26 90.09 89.48 89.92
10/2/2022 11:00 to 10:10 90.31 89.94 90.25 89.74 89.90 89.36
10/2/2022 10:00 to 9:10 89.92 88.55 87.93 86.21 86.61 88.21
10/2/2022 09:00 to 8:10 90.07 89.54 87.54 88.67 91.22 90.61
10/2/2022 08:00 to 7:10 91.30 93.40 94.23 94.89 94.63 94.87
10/2/2022 07:00 to 6:10 94.79 94.37 94.29 94.00 93.42 93.12
10/2/2022 06:00 to 5:10 93.16 92.93 92.63 92.53 92.85 93.16
10/2/2022 05:00 to 4:10 94.04 94.00 94.23 94.09 93.70 93.34
10/2/2022 04:00 to 3:10 92.99 92.91 93.01 93.22 93.54 93.80
10/2/2022 03:00 to 2:10 94.07 94.31 93.98 93.78 93.24 92.69
10/2/2022 02:00 to 1:10 92.11 91.74 92.75 92.97 92.51 91.86
10/2/2022 01:00 to 0:10 90.91 89.70 88.81 87.66 85.86 85.12
10/2/2022 00:00 to 23:10 87.86 92.25 92.35 91.18 90.81 90.41
10/1/2022 23:00 to 22:10 90.27 90.15 90.67 90.21 90.13 90.35
10/1/2022 22:00 to 21:10 90.83 89.54 88.55 89.76 91.96 92.27
10/1/2022 21:00 to 20:10 92.27 92.21 92.11 91.82 91.98 92.61
10/1/2022 20:00 to 19:10 93.30 93.92 93.84 92.73 90.87 90.25
10/1/2022 19:00 to 18:10 90.71 91.12 92.65 93.56 93.62 93.66
10/1/2022 18:00 to 17:10 94.31 95.26 95.76 95.72 95.40 95.07
10/1/2022 17:00 to 16:10 94.85 94.65 94.33 94.07 93.66 92.85
10/1/2022 16:00 to 15:10 91.58 90.23 90.73 91.62 91.76 91.96
10/1/2022 15:00 to 14:10 92.93 94.47 96.29 97.05 96.95 96.65
10/1/2022 14:00 to 13:10 95.58 95.52 95.76 96.15 96.51 96.63
10/1/2022 13:00 to 12:10 96.71 96.79 96.83 96.71 96.77 96.77
10/1/2022 12:00 to 11:10 96.67 96.41 96.19 96.04 95.98 95.96
10/1/2022 11:00 to 10:10 96.00 96.19 96.47 96.51 96.39 96.31
10/1/2022 10:00 to 9:10 96.25 96.08 96.00 95.88 95.86 95.72
10/1/2022 09:00 to 8:10 95.28 95.16 94.97 95.03 94.81 95.76
10/1/2022 08:00 to 7:10 95.86 95.66 95.30 94.89 94.23 94.04
10/1/2022 07:00 to 6:10 95.22 95.30 94.59 94.07 94.33 95.03
10/1/2022 06:00 to 5:10 94.97 94.21 93.64 93.24 93.01 93.78
10/1/2022 05:00 to 4:10 93.88 93.74 93.84 93.80 93.98 94.63
10/1/2022 04:00 to 3:10 94.99 94.83 94.63 94.00 93.82 93.56
10/1/2022 03:00 to 2:10 92.95 92.75 92.89 94.83 95.18 95.12
10/1/2022 02:00 to 1:10 94.83 94.43 93.74 93.06 93.01 92.09
10/1/2022 01:00 to 0:10 92.13 91.22 91.24 91.50 91.72 91.04
10/1/2022 00:00 to 23:10 91.16 91.08 90.93 90.47 91.92 91.52
9/30/2022 23:00 to 22:10 91.34 91.98 92.91 92.11 91.78 92.87
9/30/2022 22:00 to 21:10 93.08 92.37 90.29 89.00 88.71 88.57
9/30/2022 21:00 to 20:10 88.67 89.88 92.29 92.33 92.03 92.09
9/30/2022 20:00 to 19:10 92.19 92.83 93.08 93.48 94.02 94.43
9/30/2022 19:00 to 18:10 94.41 94.17 93.88 93.54 93.06 92.43
9/30/2022 18:00 to 17:10 92.39 92.05 92.17 92.31 92.25 92.53
9/30/2022 17:00 to 16:10 92.25 91.80 91.84 91.30 91.28 91.34
9/30/2022 16:00 to 15:10 91.86 91.58 91.44 91.30 90.81 90.35
9/30/2022 15:00 to 14:10 89.94 90.93 92.19 92.39 92.73 92.73
9/30/2022 14:00 to 13:10 92.55 92.69 92.29 91.66 91.88 91.54
9/30/2022 13:00 to 12:10 91.76 92.89 94.00 93.78 93.38 93.78
9/30/2022 12:00 to 11:10 93.76 94.25 94.35 94.29 94.33 94.61
9/30/2022 11:00 to 10:10 94.17 93.62 93.72 94.11 94.13 93.64
9/30/2022 10:00 to 9:10 93.36 92.77 92.79 94.04 94.59 95.12
9/30/2022 09:00 to 8:10 94.85 95.10 95.46 96.11 96.41 96.13
9/30/2022 08:00 to 7:10 95.98 95.84 95.78 95.80 96.02 95.94
9/30/2022 07:00 to 6:10 96.15 96.51 95.90 94.75 94.37 94.04
9/30/2022 06:00 to 5:10 93.60 93.52 93.54 93.92 93.90 94.59
9/30/2022 05:00 to 4:10 94.85 94.67 94.19 93.94 93.76 93.86
9/30/2022 04:00 to 3:10 94.07 93.82 93.12 93.10 92.59 92.59
9/30/2022 03:00 to 2:10 93.06 91.80 91.62 91.28 91.28 92.39
9/30/2022 02:00 to 1:10 93.74 94.37 95.50 95.86 96.06 96.15
9/30/2022 01:00 to 0:10 95.18 93.82 94.11 94.15 93.72 93.98
9/30/2022 00:00 to 23:10 94.25 94.04 94.45 94.81 94.67 93.46
9/29/2022 23:00 to 22:10 93.56 93.46 93.38 93.22 92.89 92.57
9/29/2022 22:00 to 21:10 92.29 92.05 91.78 91.24 90.79 90.11
9/29/2022 21:00 to 20:10 87.99 87.56 89.14 90.75 92.63 91.46
9/29/2022 20:00 to 19:10 91.30 91.38 92.33 92.65 93.76 94.59
9/29/2022 19:00 to 18:10 94.17 93.16 92.21 94.04 95.50 94.13
9/29/2022 18:00 to 17:10 93.16 92.85 92.89 92.55 90.57 88.05
9/29/2022 17:00 to 16:10 87.82 88.55 88.93 91.42 91.40 93.58
9/29/2022 16:00 to 15:10 94.43 93.88 93.88 94.53 95.68 96.31
9/29/2022 15:00 to 14:10 96.63 96.43 96.57 96.75 96.85 96.73
9/29/2022 14:00 to 13:10 96.67 96.79 96.79 96.65 96.53 96.53
9/29/2022 13:00 to 12:10 96.59 96.57 96.47 96.33 96.53 96.81
9/29/2022 12:00 to 11:10 97.20 97.66 98.23 98.21 97.46 96.95
9/29/2022 11:00 to 10:10 97.32 97.16 97.09 97.42 97.40 97.24
9/29/2022 10:00 to 9:10 97.72 98.79 99.52 99.64 99.90 100.15
9/29/2022 09:00 to 8:10 100.10 99.88 99.76 99.50 99.09 98.47
9/29/2022 08:00 to 7:10 97.54 95.74 95.26 94.81 94.27 93.88
9/29/2022 07:00 to 6:10 94.69 95.01 94.79 94.17 93.62 93.60
9/29/2022 06:00 to 5:10 93.96 94.33 94.79 94.67 94.49 94.13
9/29/2022 05:00 to 4:10 93.96 93.96 93.82 93.94 94.39 94.31
9/29/2022 04:00 to 3:10 94.49 94.57 94.39 94.13 93.74 93.62
9/29/2022 03:00 to 2:10 93.52 93.24 93.38 93.24 92.97 92.85
9/29/2022 02:00 to 1:10 92.65 92.21 91.92 92.55 92.37 92.07
9/29/2022 01:00 to 0:10 92.29 91.86 92.00 92.63 92.61 92.33
9/29/2022 00:00 to 23:10 92.09 91.86 91.28 91.14 91.36 91.16
9/28/2022 23:00 to 22:10 91.58 90.39 90.69 91.28 90.89 91.58
9/28/2022 22:00 to 21:10 91.56 90.75 90.79 91.96 92.17 91.54
9/28/2022 21:00 to 20:10 91.78 91.82 91.60 91.44 92.61 92.87
9/28/2022 20:00 to 19:10 93.01 93.04 93.46 93.46 93.42 92.97
9/28/2022 19:00 to 18:10 92.39 92.00 91.86 91.58 91.40 91.58
9/28/2022 18:00 to 17:10 91.94 92.07 92.47 92.23 92.45 92.09
9/28/2022 17:00 to 16:10 92.29 92.35 92.00 92.27 91.28 90.77
9/28/2022 16:00 to 15:10 91.00 92.45 92.75 92.43 91.86 90.81
9/28/2022 15:00 to 14:10 90.11 90.33 90.43 89.76 90.23 90.91
9/28/2022 14:00 to 13:10 91.42 91.78 92.23 92.85 92.63 93.34
9/28/2022 13:00 to 12:10 95.40 96.19 96.15 96.11 96.02 96.27
9/28/2022 12:00 to 11:10 96.81 97.36 97.60 97.64 97.72 97.84
9/28/2022 11:00 to 10:10 98.04 98.19 98.27 98.29 98.23 98.06
9/28/2022 10:00 to 9:10 97.78 97.56 97.34 97.26 97.28 97.36
9/28/2022 09:00 to 8:10 97.24 97.22 96.95 96.89 96.99 97.30
9/28/2022 08:00 to 7:10 98.23 98.73 98.75 98.35 97.90 97.92
9/28/2022 07:00 to 6:10 97.90 97.90 97.92 98.06 98.08 98.10
9/28/2022 06:00 to 5:10 98.15 98.08 98.02 98.00 97.90 97.78
9/28/2022 05:00 to 4:10 97.74 97.64 97.54 97.20 96.95 96.65
9/28/2022 04:00 to 3:10 96.45 96.35 96.13 95.78 95.56 95.34
9/28/2022 03:00 to 2:10 95.36 95.22 94.97 95.01 95.28 95.52
9/28/2022 02:00 to 1:10 95.68 95.80 96.13 96.13 95.96 95.78
9/28/2022 01:00 to 0:10 95.54 95.03 94.67 93.96 93.48 93.06
9/28/2022 00:00 to 23:10 92.77 92.57 92.91 94.57 94.99 95.88
9/27/2022 23:00 to 22:10 96.49 96.45 96.17 96.23 96.47 96.23
9/27/2022 22:00 to 21:10 95.82 95.56 95.38 95.01 94.79 94.45
9/27/2022 21:00 to 20:10 94.57 94.43 94.73 96.02 96.33 95.90
9/27/2022 20:00 to 19:10 94.51 94.43 94.33 94.35 93.86 94.00
9/27/2022 19:00 to 18:10 93.96 93.82 93.78 93.82 93.68 93.80
9/27/2022 18:00 to 17:10 94.00 93.86 94.33 94.02 94.15 94.33
9/27/2022 17:00 to 16:10 94.13 94.63 94.23 94.07 94.41 94.11
9/27/2022 16:00 to 15:10 94.51 94.61 94.47 94.71 94.15 93.90
9/27/2022 15:00 to 14:10 93.58 94.04 93.38 93.54 93.84 93.48
9/27/2022 14:00 to 13:10 94.04 93.94 94.13 94.17 94.77 95.03
9/27/2022 13:00 to 12:10 95.20 95.12 95.01 95.26 95.26 95.36
9/27/2022 12:00 to 11:10 95.34 95.52 95.50 95.68 95.94 95.88
9/27/2022 11:00 to 10:10 95.96 96.21 96.02 95.70 95.54 95.52
9/27/2022 10:00 to 9:10 95.50 95.64 96.06 96.29 96.39 96.67
9/27/2022 09:00 to 8:10 97.42 97.72 97.82 98.08 98.37 98.77
9/27/2022 08:00 to 7:10 98.95 98.89 98.73 98.51 98.25 97.96
9/27/2022 07:00 to 6:10 97.64 97.36 96.93 96.47 96.04 95.76
9/27/2022 06:00 to 5:10 95.24 95.01 94.67 94.33 94.13 93.86
9/27/2022 05:00 to 4:10 93.70 93.70 93.74 93.60 93.30 92.77
9/27/2022 04:00 to 3:10 92.63 93.26 94.17 93.96 93.68 93.98
9/27/2022 03:00 to 2:10 95.22 96.08 96.79 97.52 97.68 97.42
9/27/2022 02:00 to 1:10 96.81 95.20 94.63 94.77 95.26 94.91
9/27/2022 01:00 to 0:10 94.27 93.98 92.99 92.77 92.45 92.29
9/27/2022 00:00 to 23:10 92.07 92.55 92.47 92.61 93.62 94.43
9/26/2022 23:00 to 22:10 94.35 93.98 94.21 93.98 93.54 93.76
9/26/2022 22:00 to 21:10 93.96 94.11 94.49 94.69 94.31 94.65
9/26/2022 21:00 to 20:10 94.99 94.97 94.77 95.05 94.89 94.65
9/26/2022 20:00 to 19:10 94.79 95.24 95.62 95.98 95.94 95.80
9/26/2022 19:00 to 18:10 95.36 94.97 94.71 94.39 94.47 95.03
9/26/2022 18:00 to 17:10 96.11 96.45 96.59 96.63 96.47 96.31
9/26/2022 17:00 to 16:10 95.66 95.48 95.66 96.11 96.51 96.61
9/26/2022 16:00 to 15:10 96.69 96.06 94.63 93.80 93.62 93.42
9/26/2022 15:00 to 14:10 93.50 93.26 92.93 93.46 93.58 95.52
9/26/2022 14:00 to 13:10 98.02 98.43 98.35 98.08 98.10 97.98
9/26/2022 13:00 to 12:10 98.23 98.39 98.59 98.83 98.87 98.93
9/26/2022 12:00 to 11:10 97.66 96.87 96.45 96.25 96.41 96.65
9/26/2022 11:00 to 10:10 97.38 97.60 97.80 97.64 97.28 97.05
9/26/2022 10:00 to 9:10 97.09 97.16 97.30 97.72 98.15 98.55
9/26/2022 09:00 to 8:10 98.95 99.03 99.03 99.11 99.09 99.11
9/26/2022 08:00 to 7:10 98.99 98.87 98.69 98.47 98.23 98.00
9/26/2022 07:00 to 6:10 97.76 97.46 97.14 96.85 96.81 97.32
9/26/2022 06:00 to 5:10 97.68 98.06 98.25 98.31 98.33 98.33
9/26/2022 05:00 to 4:10 98.37 98.31 98.27 98.23 98.17 98.17
9/26/2022 04:00 to 3:10 98.15 98.02 97.84 97.62 97.34 96.81
9/26/2022 03:00 to 2:10 96.25 95.84 95.58 95.86 95.84 95.94
9/26/2022 02:00 to 1:10 96.04 95.60 94.77 94.63 96.33 96.19
9/26/2022 01:00 to 0:10 95.74 95.62 95.36 94.47 94.33 93.52